createdAt,value
2022-11-22T04:46:14.316Z,17.58
2022-11-22T04:49:17.488Z,16.52
2022-11-22T04:52:38.547Z,16.58
2022-11-22T04:55:42.113Z,12.20
2022-11-22T04:58:44.812Z,11.07
2022-11-22T05:01:47.608Z,11.88
2022-11-22T05:04:50.930Z,11.43
2022-11-22T05:07:54.180Z,12.25
2022-11-22T05:10:56.748Z,11.20
2022-11-22T05:13:59.429Z,10.80
2022-11-22T05:17:01.759Z,12.20
2022-11-22T05:20:09.075Z,11.18
2022-11-22T05:23:30.660Z,10.43
2022-11-22T05:26:35.828Z,11.82
2022-11-22T05:29:38.238Z,11.50
2022-11-22T05:32:40.825Z,11.52
2022-11-22T05:35:43.240Z,10.50
2022-11-22T05:38:46.413Z,10.52
2022-11-22T05:41:55.964Z,11.37
2022-11-22T05:44:58.748Z,9.90
2022-11-22T05:48:01.175Z,10.68
2022-11-22T05:51:05.988Z,13.20
2022-11-22T05:54:08.455Z,11.52
2022-11-22T05:57:11.125Z,10.73
2022-11-22T06:00:13.897Z,9.98
2022-11-22T06:03:16.566Z,11.25
2022-11-22T06:06:19.046Z,13.20
2022-11-22T06:09:22.809Z,11.00
2022-11-22T06:12:25.167Z,10.70
2022-11-22T06:15:27.758Z,10.80
2022-11-22T06:18:30.357Z,10.90
2022-11-22T06:21:33.643Z,11.77
2022-11-22T06:24:36.096Z,10.40
2022-11-22T06:27:38.766Z,12.17
2022-11-22T06:30:41.160Z,10.75
2022-11-22T06:33:44.607Z,11.32
2022-11-22T06:36:46.883Z,11.75
2022-11-22T06:39:50.408Z,10.95
2022-11-22T06:42:52.985Z,12.27
2022-11-22T06:45:57.544Z,11.25
2022-11-22T06:49:00.460Z,10.38
2022-11-22T06:52:03.175Z,11.27
2022-11-22T06:55:08.150Z,11.18
2022-11-22T06:58:10.920Z,11.12
2022-11-22T07:01:16.849Z,10.55
2022-11-22T07:04:19.572Z,11.32
2022-11-22T07:07:21.954Z,10.10
2022-11-22T07:10:24.579Z,12.87
2022-11-22T07:13:27.105Z,10.77
2022-11-22T07:16:29.977Z,10.63
2022-11-22T07:19:33.369Z,13.75
2022-11-22T07:22:36.641Z,12.07
2022-11-22T07:25:38.916Z,12.00
2022-11-22T07:28:42.493Z,11.57
2022-11-22T07:31:46.537Z,11.77
2022-11-22T07:34:49.208Z,9.73
2022-11-22T07:37:51.550Z,9.93
2022-11-22T07:40:54.095Z,12.65
2022-11-22T07:43:56.474Z,10.18
2022-11-22T07:46:59.000Z,12.05
2022-11-22T07:50:01.368Z,12.93
2022-11-22T07:53:03.893Z,12.27
2022-11-22T07:56:07.489Z,11.60
2022-11-22T07:59:10.897Z,10.45
2022-11-22T08:02:13.907Z,10.90
2022-11-22T08:05:17.460Z,12.70
2022-11-22T08:08:19.772Z,11.12
2022-11-22T08:11:22.440Z,12.17
2022-11-22T08:14:24.716Z,11.88
2022-11-22T08:17:27.287Z,11.12
2022-11-22T08:20:29.662Z,13.00
2022-11-22T08:23:32.697Z,10.57
2022-11-22T08:26:35.525Z,10.87
2022-11-22T08:29:38.089Z,11.73
2022-11-22T08:32:40.448Z,10.15
2022-11-22T08:35:43.515Z,10.10
2022-11-22T08:38:45.914Z,11.80
2022-11-22T08:41:48.567Z,12.27
2022-11-22T08:44:51.065Z,10.82
2022-11-22T08:47:53.662Z,9.93
2022-11-22T08:50:58.551Z,10.98
2022-11-22T08:54:01.111Z,12.32
2022-11-22T08:57:03.412Z,9.45
2022-11-22T09:00:08.829Z,11.68
2022-11-22T09:03:11.308Z,10.45
2022-11-22T09:09:40.886Z,11.02
2022-11-22T09:12:45.546Z,10.40
2022-11-22T09:15:47.878Z,10.95
2022-11-22T09:18:51.526Z,9.90
2022-11-22T09:21:53.838Z,11.25
2022-11-22T09:24:56.405Z,10.35
2022-11-22T09:28:04.735Z,9.82
2022-11-22T09:31:14.130Z,12.23
2022-11-22T09:34:16.511Z,11.85
2022-11-22T09:37:19.926Z,13.38
2022-11-22T09:40:22.272Z,12.02
2022-11-22T09:43:31.427Z,12.60
2022-11-22T09:46:54.474Z,14.15
2022-11-22T09:50:23.737Z,11.68
2022-11-22T09:53:48.088Z,12.55
2022-11-22T09:56:54.568Z,13.02
2022-11-22T10:00:04.091Z,12.70
2022-11-22T10:03:37.484Z,12.32
2022-11-22T10:06:46.344Z,11.93
2022-11-22T10:10:14.897Z,12.73
2022-11-22T10:13:26.535Z,12.27
2022-11-22T10:16:35.641Z,12.18
2022-11-22T10:19:44.837Z,13.73
2022-11-22T10:22:48.753Z,12.60
2022-11-22T10:26:04.704Z,13.82
2022-11-22T10:29:19.812Z,12.50
2022-11-22T10:32:40.874Z,12.88
2022-11-22T10:35:55.869Z,14.43
2022-11-22T10:39:34.635Z,12.82
2022-11-22T10:42:43.426Z,14.05
2022-11-22T10:45:52.965Z,13.23
2022-11-22T10:49:23.506Z,13.35
2022-11-22T10:52:29.137Z,14.15
2022-11-22T10:55:49.841Z,12.95
2022-11-22T10:59:10.645Z,14.38
2022-11-22T11:02:43.469Z,15.13
2022-11-22T11:13:03.092Z,14.00
2022-11-22T11:16:11.106Z,13.00
2022-11-22T11:19:18.523Z,12.77
2022-11-22T11:22:50.251Z,13.73
2022-11-22T11:25:49.247Z,14.95
2022-11-22T11:28:54.251Z,14.35
2022-11-22T11:32:06.457Z,14.13
2022-11-22T11:35:15.648Z,15.35
2022-11-22T11:38:32.302Z,13.27
2022-11-22T11:41:40.213Z,14.65
2022-11-22T11:44:43.250Z,12.73
2022-11-22T11:47:45.964Z,15.60
2022-11-22T11:50:48.571Z,15.17
2022-11-22T11:53:59.606Z,14.55
2022-11-22T11:57:05.602Z,15.95
2022-11-22T12:00:20.606Z,15.25
2022-11-22T12:03:25.326Z,15.23
2022-11-22T12:06:30.035Z,17.30
2022-11-22T12:09:43.074Z,17.20
2022-11-22T12:12:51.127Z,15.93
2022-11-22T12:16:21.882Z,15.27
2022-11-22T12:19:50.493Z,15.10
2022-11-22T12:23:03.781Z,14.65
2022-11-22T12:26:06.218Z,16.10
2022-11-22T12:29:15.661Z,15.77
2022-11-22T12:32:27.571Z,15.73
2022-11-22T12:35:40.964Z,16.70
2022-11-22T12:38:45.873Z,17.05
2022-11-22T12:41:51.868Z,16.55
2022-11-22T12:45:12.413Z,15.75
2022-11-22T12:48:22.112Z,16.33
2022-11-22T12:51:43.713Z,15.77
2022-11-22T12:55:08.209Z,16.75
2022-11-22T12:58:27.681Z,18.25
2022-11-22T13:01:38.993Z,18.83
2022-11-22T13:04:50.653Z,16.70
2022-11-22T13:08:38.005Z,16.40
2022-11-22T13:12:06.588Z,18.70
2022-11-22T13:15:13.868Z,14.77
2022-11-22T13:18:16.857Z,15.55
2022-11-22T13:21:24.604Z,15.35
2022-11-22T13:24:32.324Z,14.05
2022-11-22T13:27:41.047Z,15.32
2022-11-22T13:31:11.856Z,12.32
2022-11-22T13:34:26.212Z,14.18
2022-11-22T13:37:31.301Z,13.62
2022-11-22T13:40:39.108Z,14.10
2022-11-22T13:44:30.347Z,15.35
2022-11-22T13:47:43.850Z,13.55
2022-11-22T13:50:49.419Z,12.57
2022-11-22T13:54:30.715Z,11.38
2022-11-22T13:57:35.977Z,11.65
2022-11-22T14:00:41.966Z,12.13
2022-11-22T14:03:44.689Z,12.90
2022-11-22T14:06:54.103Z,11.73
2022-11-22T14:09:59.984Z,11.52
2022-11-22T14:13:24.259Z,11.57
2022-11-22T14:16:40.089Z,12.07
2022-11-22T14:20:07.600Z,13.10
2022-11-22T14:23:37.538Z,13.27
2022-11-22T14:26:54.226Z,13.13
2022-11-22T14:30:19.762Z,12.10
2022-11-22T14:33:24.392Z,12.15
2022-11-22T14:36:26.919Z,12.80
2022-11-22T14:39:44.525Z,13.43
2022-11-22T14:42:50.891Z,12.93
2022-11-22T14:45:59.750Z,12.45
2022-11-22T14:49:15.002Z,13.85
2022-11-22T14:52:25.789Z,11.50
2022-11-22T14:55:32.786Z,12.37
2022-11-22T14:58:41.087Z,10.88
2022-11-22T15:01:59.462Z,12.93
2022-11-22T15:09:21.958Z,12.18
2022-11-22T15:09:48.647Z,13.18
2022-11-22T15:13:24.495Z,13.45
2022-11-22T15:58:13.480Z,13.68
2022-11-22T16:01:20.406Z,13.82
2022-11-22T16:04:28.277Z,10.68
2022-11-22T16:07:42.185Z,11.05
2022-11-22T16:13:51.525Z,14.50
2022-11-22T16:16:54.160Z,13.07
2022-11-22T16:20:24.046Z,13.30
2022-11-22T16:23:28.574Z,13.45
2022-11-22T16:26:31.807Z,16.12
2022-11-22T16:29:36.979Z,12.95
2022-11-22T16:32:39.298Z,13.32
2022-11-22T16:35:41.934Z,11.35
2022-11-22T16:38:44.939Z,13.38
2022-11-22T16:41:47.630Z,13.70
2022-11-22T16:44:50.962Z,11.80
